Welcome to Northern Hawkes Bay. New Zealand.
PWS Header
      nz Flag



Hit Counter


W3C Valid W3C Valid logo


    Wairoa

Select any of the Stations below to visit their websites.










Historic Data from Weather Underground
Select the location of interest below. Wairoa is the default. Please have patience, this Data is slow to load in.
Northern Hawkes Bay Historical Data
Daily Summary for February 22, 2017 Units:  English    Metric   Both
« Previous Day
Next Day »
Daily Weekly Monthly Yearly Custom
  High: Low: Average:
Temperature: 81.7 °F 51.8 °F 65.7 °F
Dew Point: 60.6 °F 51.3 °F 55.4 °F
Humidity: 98% 42% 73%
Wind Speed: 7.6mph 0mph 2.4mph
Wind Gust: 11.4mph - -
Wind- - SSW
Pressure: 30.2 in 30 in -
Precipitation: 0 in    
Historical Graphs
 
 
Tabular Data for February 22, 2017
Time Temperature Dew Point Pressure Wind Wind Speed Wind Gust Humidity Rainfall Rate (Hourly) solar
00:00 56.7 °F 54.3 °F 30.2 in Calm     92% 0 in 0 W/m2
00:05 56.7 °F 54.3 °F 30.2 in Calm     92% 0 in 0 W/m2
00:10 56.5 °F 54.5 °F 30.2 in Calm     93% 0 in 0 W/m2
00:15 56.3 °F 54.3 °F 30.2 in Calm     93% 0 in 0 W/m2
00:20 56.1 °F 54.1 °F 30.2 in Calm     93% 0 in 0 W/m2
00:25 56.1 °F 54.1 °F 30.2 in Calm     93% 0 in 0 W/m2
00:30 56.1 °F 54.3 °F 30.2 in Calm     94% 0 in 0 W/m2
00:35 56.3 °F 54.7 °F 30.2 in Calm     94% 0 in 0 W/m2
00:41 56.3 °F 54.9 °F 30.2 in Calm     95% 0 in 0 W/m2
00:46 56.3 °F 54.9 °F 30.2 in Calm     95% 0 in 0 W/m2
00:51 56.3 °F 54.9 °F 30.2 in Calm     95% 0 in 0 W/m2
00:56 56.1 °F 54.7 °F 30.2 in Calm     95% 0 in 0 W/m2
01:01 56.1 °F 54.7 °F 30.2 in NNW 0.7 mph 2.2 mph 95% 0 in 0 W/m2
01:06 55.9 °F 54.5 °F 30.2 in Calm   2.2 mph 95% 0 in 0 W/m2
01:11 55.8 °F 54.3 °F 30.2 in Calm   2.2 mph 95% 0 in 0 W/m2
01:16 55.6 °F 54.1 °F 30.2 in Calm     95% 0 in 0 W/m2
01:21 55.4 °F 54 °F 30.2 in NNW 1.6 mph 2.2 mph 95% 0 in 0 W/m2
01:26 55.4 °F 54 °F 30.2 in NNW 1.6 mph 3.1 mph 95% 0 in 0 W/m2
01:31 55.4 °F 54 °F 30.2 in NW 1.6 mph 3.1 mph 95% 0 in 0 W/m2
01:36 55.2 °F 54.1 °F 30.2 in NNW 1.6 mph 3.1 mph 96% 0 in 0 W/m2
01:41 55.2 °F 54.1 °F 30.2 in North 1.6 mph 3.1 mph 96% 0 in 0 W/m2
01:46 55 °F 54 °F 30.2 in Calm   3.1 mph 96% 0 in 0 W/m2
01:51 54.9 °F 53.8 °F 30.2 in NNW 1.6 mph 3.1 mph 96% 0 in 0 W/m2
01:56 54.9 °F 53.8 °F 30.2 in NNW 1.6 mph 3.1 mph 96% 0 in 0 W/m2
02:01 54.9 °F 53.8 °F 30.2 in NNW 2.2 mph 3.1 mph 96% 0 in 0 W/m2
02:06 54.7 °F 54 °F 30.2 in NNW 1.6 mph 3.1 mph 97% 0 in 0 W/m2
02:11 54.7 °F 54 °F 30.2 in NNW 0.7 mph 3.1 mph 97% 0 in 0 W/m2
02:16 54.7 °F 54 °F 30.2 in NNW 1.6 mph 3.1 mph 97% 0 in 0 W/m2
02:21 54.7 °F 54 °F 30.2 in NNW 2.2 mph 3.1 mph 97% 0 in 0 W/m2
02:26 54.5 °F 53.8 °F 30.2 in NNW 3.1 mph 4.5 mph 97% 0 in 0 W/m2
02:31 54.5 °F 53.8 °F 30.2 in NW 2.2 mph 4.5 mph 97% 0 in 0 W/m2
02:36 54.5 °F 53.8 °F 30.1 in NW 2.2 mph 4.5 mph 97% 0 in 0 W/m2
02:41 54.5 °F 53.8 °F 30.1 in NW 3.1 mph 4.5 mph 97% 0 in 0 W/m2
02:46 54.3 °F 53.4 °F 30.2 in NW 2.2 mph 4.5 mph 97% 0 in 0 W/m2
02:51 54.3 °F 53.4 °F 30.2 in NNW 2.2 mph 4.5 mph 97% 0 in 0 W/m2
02:57 54.3 °F 53.4 °F 30.1 in NNW 3.1 mph 4.5 mph 97% 0 in 0 W/m2
03:02 54.3 °F 53.4 °F 30.1 in NNW 3.1 mph 4.5 mph 97% 0 in 0 W/m2
03:07 54.3 °F 53.4 °F 30.1 in NNW 3.8 mph 4.5 mph 97% 0 in 0 W/m2
03:12 54.3 °F 53.4 °F 30.1 in NW 3.8 mph 5.4 mph 97% 0 in 0 W/m2
03:17 54.1 °F 53.2 °F 30.1 in NW 3.1 mph 5.4 mph 97% 0 in 0 W/m2
03:22 54.1 °F 53.2 °F 30.1 in NW 3.1 mph 5.4 mph 97% 0 in 0 W/m2
03:27 54.1 °F 53.2 °F 30.1 in NW 3.1 mph 5.4 mph 97% 0 in 0 W/m2
03:32 54.1 °F 53.2 °F 30.1 in NW 2.2 mph 5.4 mph 97% 0 in 0 W/m2
03:37 54 °F 53.1 °F 30.1 in NW 2.2 mph 4.5 mph 97% 0 in 0 W/m2
03:42 54 °F 53.1 °F 30.1 in NNW 3.1 mph 4.5 mph 97% 0 in 0 W/m2
03:47 53.8 °F 53.1 °F 30.1 in NNW 3.8 mph 6 mph 97% 0 in 0 W/m2
03:52 53.8 °F 53.1 °F 30.1 in NNW 3.1 mph 6 mph 97% 0 in 0 W/m2
03:57 53.8 °F 53.1 °F 30.1 in NNW 3.1 mph 6 mph 97% 0 in 0 W/m2
04:02 53.8 °F 53.1 °F 30.1 in NNW 3.1 mph 5.4 mph 97% 0 in 0 W/m2
04:07 53.8 °F 53.1 °F 30.1 in NNW 3.1 mph 5.4 mph 97% 0 in 0 W/m2
04:12 53.8 °F 53.1 °F 30.1 in NNW 3.1 mph 5.4 mph 97% 0 in 0 W/m2
04:17 53.6 °F 52.9 °F 30.1 in NNW 3.1 mph 5.4 mph 97% 0 in 0 W/m2
04:22 53.6 °F 52.9 °F 30.1 in NNW 3.1 mph 5.4 mph 97% 0 in 0 W/m2
04:27 53.4 °F 52.9 °F 30.1 in NNW 3.8 mph 5.4 mph 98% 0 in 0 W/m2
04:32 53.2 °F 52.7 °F 30.1 in NNW 2.2 mph 6 mph 98% 0 in 0 W/m2
04:37 53.2 °F 52.7 °F 30.1 in NNW 3.1 mph 6 mph 98% 0 in 0 W/m2
04:42 53.1 °F 52.5 °F 30.1 in NW 2.2 mph 5.4 mph 98% 0 in 0 W/m2
04:47 53.1 °F 52.5 °F 30.1 in NW 1.6 mph 4.5 mph 98% 0 in 0 W/m2
04:52 52.9 °F 52.3 °F 30.1 in NW 2.2 mph 4.5 mph 98% 0 in 0 W/m2
04:57 52.7 °F 52.2 °F 30.1 in NNW 1.6 mph 3.8 mph 98% 0 in 0 W/m2
05:02 52.7 °F 52.2 °F 30.1 in NNW 0.7 mph 3.8 mph 98% 0 in 0 W/m2
05:07 52.5 °F 52 °F 30.1 in North 1.6 mph 3.8 mph 98% 0 in 0 W/m2
05:12 52.3 °F 51.8 °F 30.1 in North 0.7 mph 3.1 mph 98% 0 in 0 W/m2
05:17 52.3 °F 51.8 °F 30.1 in NNW 3.1 mph 3.8 mph 98% 0 in 0 W/m2
05:22 52.3 °F 51.8 °F 30.1 in NNW 0.7 mph 3.8 mph 98% 0 in 0 W/m2
05:27 52.2 °F 51.6 °F 30.1 in NNW 1.6 mph 3.8 mph 98% 0 in 0 W/m2
05:32 52.2 °F 51.6 °F 30.1 in NNW 2.2 mph 3.1 mph 98% 0 in 0 W/m2
05:37 52.2 °F 51.6 °F 30.1 in North 0.7 mph 3.8 mph 98% 0 in 0 W/m2
05:42 52.2 °F 51.6 °F 30.1 in NNW 2.2 mph 3.8 mph 98% 0 in 0 W/m2
05:47 52 °F 51.4 °F 30.1 in NNW 2.2 mph 3.8 mph 98% 0 in 0 W/m2
05:52 51.8 °F 51.3 °F 30.1 in North 0.7 mph 3.8 mph 98% 0 in 0 W/m2
05:57 52 °F 51.4 °F 30.1 in North 2.2 mph 3.8 mph 98% 0 in 0 W/m2
06:02 52 °F 51.4 °F 30.1 in NNW 3.1 mph 4.5 mph 98% 0 in 0 W/m2
06:07 52 °F 51.4 °F 30.1 in NNW 3.8 mph 5.4 mph 98% 0 in 0 W/m2
06:12 51.8 °F 51.3 °F 30.1 in NNW 2.2 mph 5.4 mph 98% 0 in 0 W/m2
06:15 51.8 °F 51.3 °F 30.1 in North 3.1 mph 5.4 mph 98% 0 in 0 W/m2
06:20 51.8 °F 51.3 °F 30.1 in North 1.6 mph 3.8 mph 98% 0 in 0 W/m2
06:25 51.8 °F 51.3 °F 30.1 in NNW 2.2 mph 3.8 mph 98% 0 in 0 W/m2
06:30 51.8 °F 51.3 °F 30.1 in NNW 2.2 mph 3.8 mph 98% 0 in 0 W/m2
06:35 51.8 °F 51.3 °F 30.1 in NNW 2.2 mph 4.5 mph 98% 0 in 0 W/m2
06:40 51.8 °F 51.3 °F 30.1 in NNW 1.6 mph 4.5 mph 98% 0 in 1 W/m2
06:45 51.8 °F 51.3 °F 30.1 in NNW 1.6 mph 3.1 mph 98% 0 in 3 W/m2
06:50 51.8 °F 51.3 °F 30.1 in NW 3.1 mph 3.8 mph 98% 0 in 5 W/m2
06:55 51.8 °F 51.3 °F 30.1 in NW 2.2 mph 3.8 mph 98% 0 in 9 W/m2
07:00 51.8 °F 51.3 °F 30.1 in NNW 1.6 mph 3.8 mph 98% 0 in 12 W/m2
07:05 51.8 °F 51.3 °F 30.1 in NNW 3.8 mph 6 mph 98% 0 in 17 W/m2
07:10 52 °F 51.4 °F 30.1 in NNW 2.2 mph 6 mph 98% 0 in 47 W/m2
07:15 52.5 °F 52 °F 30.1 in NNW 3.1 mph 6.9 mph 98% 0 in 64 W/m2
07:20 53.1 °F 52.5 °F 30.1 in NNW 3.8 mph 7.6 mph 98% 0 in 76 W/m2
07:25 53.4 °F 52.9 °F 30.1 in NNW 5.4 mph 9.8 mph 98% 0 in 85 W/m2
07:30 53.8 °F 53.1 °F 30.1 in NNW 4.5 mph 9.8 mph 97% 0 in 96 W/m2
07:35 54.3 °F 53.4 °F 30.1 in NNW 3.8 mph 7.6 mph 97% 0 in 109 W/m2
07:40 54.9 °F 54 °F 30.1 in NNW 2.2 mph 6.9 mph 97% 0 in 119 W/m2
07:45 55.6 °F 54.1 °F 30.1 in NNW 0.7 mph 6 mph 95% 0 in 132 W/m2
07:50 56.7 °F 55 °F 30.1 in NNW 1.6 mph 5.4 mph 94% 0 in 141 W/m2
07:56 58.1 °F 55.2 °F 30.1 in North 2.2 mph 4.5 mph 90% 0 in 157 W/m2
08:01 59.4 °F 55.6 °F 30.1 in NNE 0.7 mph 4.5 mph 87% 0 in 166 W/m2
08:06 60.8 °F 55.9 °F 30.1 in Calm   3.8 mph 84% 0 in 176 W/m2
08:11 61.5 °F 55 °F 30.1 in NE 0.7 mph 2.2 mph 79% 0 in 165 W/m2
08:16 61.3 °F 53.8 °F 30.1 in Calm   3.1 mph 76% 0 in 191 W/m2
08:21 61.7 °F 54.1 °F 30.1 in NNW 2.2 mph 3.8 mph 76% 0 in 202 W/m2
08:26 61.7 °F 54.1 °F 30.1 in NNW 2.2 mph 5.4 mph 76% 0 in 221 W/m2
08:31 61.5 °F 54.7 °F 30.1 in NW 3.1 mph 6 mph 78% 0 in 232 W/m2
08:36 61.3 °F 54.3 °F 30.1 in NNW 2.2 mph 6 mph 78% 0 in 235 W/m2
08:41 62.1 °F 55 °F 30.1 in NNW 3.1 mph 5.4 mph 78% 0 in 241 W/m2
08:42 62.1 °F 54.9 °F 30.1 in NNW 3.8 mph 5.4 mph 77% 0 in 241 W/m2
08:47 62.8 °F 54.9 °F 30.1 in NNW 3.1 mph 5.4 mph 75% 0 in 247 W/m2
08:48 63 °F 54.9 °F 30.1 in NNW 3.1 mph 5.4 mph 75% 0 in 248 W/m2
09:04 64.2 °F 55.4 °F 30.1 in NNW 3.8 mph 6.9 mph 73% 0 in 269 W/m2
09:09 64.4 °F 55.6 °F 30.1 in NNW 3.1 mph 6.9 mph 73% 0 in 284 W/m2
09:14 64.8 °F 55.6 °F 30.1 in NNW 3.1 mph 6.9 mph 72% 0 in 301 W/m2
09:19 65.1 °F 55.6 °F 30.1 in NNW 3.1 mph 6.9 mph 71% 0 in 314 W/m2
09:24 65.8 °F 56.1 °F 30.1 in NNW 2.2 mph 6.9 mph 71% 0 in 322 W/m2
09:29 66.7 °F 55.6 °F 30.1 in North 3.8 mph 6.9 mph 67% 0 in 347 W/m2
09:34 67.6 °F 55.9 °F 30.1 in North 4.5 mph 6.9 mph 66% 0 in 368 W/m2
09:39 68.7 °F 56.1 °F 30.1 in NNE 3.8 mph 7.6 mph 64% 0 in 384 W/m2
09:45 68.9 °F 55.8 °F 30.1 in NNE 3.1 mph 7.6 mph 63% 0 in 402 W/m2
09:50 69.8 °F 54 °F 30.1 in NNE 3.8 mph 7.6 mph 57% 0 in 416 W/m2
09:55 69.3 °F 54 °F 30.1 in NNE 6.9 mph 9.8 mph 58% 0 in 429 W/m2
10:00 69.1 °F 53.2 °F 30.1 in NE 5.4 mph 9.8 mph 57% 0 in 443 W/m2
10:05 69.8 °F 52.9 °F 30.1 in NE 4.5 mph 8.3 mph 55% 0 in 461 W/m2
10:10 70.5 °F 53.1 °F 30.1 in NE 3.1 mph 6.9 mph 54% 0 in 477 W/m2
10:15 70.2 °F 52.3 °F 30.1 in NE 3.8 mph 8.3 mph 53% 0 in 493 W/m2
10:20 69.4 °F 52.2 °F 30.1 in ENE 4.5 mph 11.4 mph 54% 0 in 501 W/m2
10:25 70.2 °F 52.9 °F 30.1 in NE 3.8 mph 11.4 mph 54% 0 in 525 W/m2
10:30 70.7 °F 52.9 °F 30.1 in NNE 1.6 mph 7.6 mph 53% 0 in 541 W/m2
10:35 71.8 °F 53.8 °F 30.1 in NNE 0.7 mph 6.9 mph 53% 0 in 559 W/m2
10:40 71.8 °F 52.2 °F 30.1 in ENE 4.5 mph 9.2 mph 50% 0 in 577 W/m2
10:45 71.4 °F 53.4 °F 30.1 in NE 6 mph 9.8 mph 53% 0 in 469 W/m2
10:50 72 °F 53.4 °F 30.1 in NE 3.8 mph 9.8 mph 52% 0 in 602 W/m2
10:56 72.5 °F 53.4 °F 30.1 in ENE 2.2 mph 7.6 mph 51% 0 in 110 W/m2
11:01 73.4 °F 53.8 °F 30.1 in ENE 3.1 mph 6.9 mph 50% 0 in 640 W/m2
11:06 74.1 °F 54.3 °F 30.1 in NE 0.7 mph 5.4 mph 50% 0 in 101 W/m2
11:11 74.1 °F 53.2 °F 30.1 in NE 2.2 mph 8.3 mph 48% 0 in 101 W/m2
11:16 73.9 °F 53.6 °F 30.1 in NE 3.8 mph 8.3 mph 49% 0 in 679 W/m2
11:18 73.8 °F 53.4 °F 30.1 in NE 3.1 mph 8.3 mph 49% 0 in 691 W/m2
11:24 73.8 °F 52.9 °F 30.1 in NE 3.8 mph 8.3 mph 48% 0 in 708 W/m2
11:29 74.1 °F 53.8 °F 30.1 in NE 3.8 mph 8.3 mph 49% 0 in 730 W/m2
11:34 73.6 °F 52.2 °F 30.1 in NNE 5.4 mph 7.6 mph 47% 0 in 110 W/m2
11:39 73.6 °F 52.7 °F 30.1 in North 3.1 mph 8.3 mph 48% 0 in 763 W/m2
11:44 74.5 °F 53.4 °F 30.1 in North 2.2 mph 8.3 mph 48% 0 in 786 W/m2
11:49 75 °F 54 °F 30.1 in SW 5.4 mph 6.9 mph 48% 0 in 814 W/m2
11:54 73.8 °F 56.1 °F 30.1 in South 4.5 mph 6.9 mph 54% 0 in 824 W/m2
11:59 72.5 °F 54.9 °F 30.1 in South 6.9 mph 10.7 mph 54% 0 in 833 W/m2
12:04 71.4 °F 54.9 °F 30.1 in South 3.1 mph 10.7 mph 56% 0 in 847 W/m2
12:09 71.8 °F 55.2 °F 30.1 in South 4.5 mph 9.2 mph 56% 0 in 870 W/m2
12:14 72 °F 54.9 °F 30.1 in South 4.5 mph 8.3 mph 55% 0 in 880 W/m2
12:19 71.8 °F 55.2 °F 30.1 in SSE 3.1 mph 8.3 mph 56% 0 in 896 W/m2
12:24 71.6 °F 55 °F 30.1 in SE 1.6 mph 8.3 mph 56% 0 in 904 W/m2
12:29 71.8 °F 55.2 °F 30.1 in SSE 6.9 mph 9.2 mph 56% 0 in 912 W/m2
12:34 71.8 °F 56.1 °F 30.1 in SSE 3.8 mph 9.2 mph 58% 0 in 916 W/m2
12:39 71.8 °F 56.7 °F 30.1 in SSE 3.8 mph 9.2 mph 59% 0 in 923 W/m2
12:44 72.5 °F 56.8 °F 30.1 in SSE 1.6 mph 9.2 mph 58% 0 in 930 W/m2
12:49 72.9 °F 55.8 °F 30.1 in SSE 1.6 mph 7.6 mph 55% 0 in 939 W/m2
12:54 72.7 °F 56.1 °F 30.1 in SSE 2.2 mph 9.2 mph 56% 0 in 938 W/m2
12:59 72.7 °F 54.7 °F 30.1 in SE 6 mph 9.2 mph 53% 0 in 943 W/m2
13:04 72 °F 55.9 °F 30.1 in SSE 3.8 mph 11.4 mph 57% 0 in 941 W/m2
13:09 72.3 °F 55.2 °F 30.1 in SSE 5.4 mph 11.4 mph 55% 0 in 944 W/m2
13:14 73.4 °F 55.8 °F 30.1 in SSE 3.8 mph 9.2 mph 54% 0 in 947 W/m2
13:19 73.6 °F 56.5 °F 30.1 in SSE 3.8 mph 8.3 mph 55% 0 in 947 W/m2
13:24 74.1 °F 57 °F 30.1 in SSE 3.1 mph 8.3 mph 55% 0 in 946 W/m2
13:29 74.7 °F 56.5 °F 30.1 in SE 4.5 mph 8.3 mph 53% 0 in 945 W/m2
13:34 74.3 °F 57 °F 30.1 in SE 4.5 mph 8.3 mph 55% 0 in 940 W/m2
13:39 74.3 °F 57 °F 30.1 in SSE 6 mph 9.2 mph 55% 0 in 936 W/m2
13:44 73.9 °F 56.8 °F 30.1 in South 3.8 mph 9.2 mph 55% 0 in 927 W/m2
13:49 74.3 °F 56.7 °F 30.1 in South 3.1 mph 9.8 mph 54% 0 in 924 W/m2
13:54 74.7 °F 57.6 °F 30.1 in SE 5.4 mph 9.8 mph 55% 0 in 918 W/m2
13:59 74.3 °F 57.6 °F 30.1 in SSE 4.5 mph 9.2 mph 56% 0 in 907 W/m2
14:04 74.7 °F 57.6 °F 30.1 in South 3.1 mph 8.3 mph 55% 0 in 900 W/m2
14:09 75.2 °F 56.8 °F 30.1 in SSE 3.8 mph 8.3 mph 53% 0 in 893 W/m2
14:14 75.2 °F 56.5 °F 30.1 in SE 1.6 mph 8.3 mph 52% 0 in 882 W/m2
14:19 75.4 °F 57 °F 30.1 in SE 3.1 mph 8.3 mph 53% 0 in 874 W/m2
14:24 76.1 °F 57.2 °F 30.1 in SE 3.8 mph 7.6 mph 52% 0 in 860 W/m2
14:29 75.9 °F 57.6 °F 30.1 in SE 3.1 mph 6.9 mph 53% 0 in 836 W/m2
14:34 75.7 °F 56.8 °F 30.1 in SE 5.4 mph 8.3 mph 52% 0 in 839 W/m2
14:39 75.6 °F 56.1 °F 30.1 in SE 5.4 mph 8.3 mph 51% 0 in 818 W/m2
14:44 75.9 °F 57 °F 30.1 in SSE 3.8 mph 7.6 mph 52% 0 in 493 W/m2
14:49 76.1 °F 56.7 °F 30.1 in South 5.4 mph 9.2 mph 51% 0 in 721 W/m2
14:54 75.7 °F 56.5 °F 30.1 in SSE 2.2 mph 9.2 mph 51% 0 in 776 W/m2
14:59 76.3 °F 56.8 °F 30.1 in SE 1.6 mph 9.2 mph 51% 0 in 768 W/m2
15:04 76.3 °F 56.3 °F 30.1 in SE 7.6 mph 9.2 mph 50% 0 in 733 W/m2
15:09 75.9 °F 56.5 °F 30 in SE 3.8 mph 9.8 mph 51% 0 in 741 W/m2
15:14 76.5 °F 56.5 °F 30 in SE 5.4 mph 9.8 mph 50% 0 in 624 W/m2
15:19 76.3 °F 56.3 °F 30.1 in SE 3.8 mph 8.3 mph 50% 0 in 349 W/m2
15:24 77.4 °F 56.7 °F 30 in SE 3.8 mph 9.8 mph 49% 0 in 699 W/m2
15:29 77.5 °F 56.8 °F 30 in ESE 5.4 mph 9.8 mph 49% 0 in 562 W/m2
15:34 77.7 °F 58.3 °F 30 in SE 4.5 mph 9.8 mph 51% 0 in 674 W/m2
15:39 78.3 °F 57.6 °F 30 in SE 3.8 mph 8.3 mph 49% 0 in 661 W/m2
15:44 77.7 °F 55.9 °F 30 in SE 3.1 mph 8.3 mph 47% 0 in 648 W/m2
15:49 78.4 °F 57.2 °F 30 in SE 3.1 mph 7.6 mph 48% 0 in 560 W/m2
15:54 79 °F 55.9 °F 30 in SE 3.8 mph 7.6 mph 45% 0 in 548 W/m2
15:59 79 °F 55.9 °F 30 in SE 4.5 mph 7.6 mph 45% 0 in 442 W/m2
16:04 79.2 °F 55.9 °F 30 in SE 3.8 mph 7.6 mph 45% 0 in 351 W/m2
16:09 79.5 °F 55.8 °F 30 in SE 3.8 mph 7.6 mph 44% 0 in 136 W/m2
16:14 79.2 °F 55.4 °F 30 in SE 3.8 mph 8.3 mph 44% 0 in 568 W/m2
16:19 79.5 °F 55 °F 30 in ESE 3.8 mph 8.3 mph 43% 0 in 397 W/m2
16:24 79.7 °F 55.9 °F 30 in SE 4.5 mph 7.6 mph 44% 0 in 526 W/m2
16:29 80.2 °F 57 °F 30 in SSE 1.6 mph 7.6 mph 45% 0 in 365 W/m2
16:34 80.8 °F 56.1 °F 30 in ESE 1.6 mph 6 mph 43% 0 in 520 W/m2
16:39 80.8 °F 55.6 °F 30 in East 6.9 mph 8.3 mph 42% 0 in 301 W/m2
16:44 79.7 °F 55.2 °F 30 in ESE 5.4 mph 9.2 mph 43% 0 in 480 W/m2
16:49 79.5 °F 55.8 °F 30 in ESE 3.8 mph 9.2 mph 44% 0 in 453 W/m2
16:54 80.2 °F 56.5 °F 30 in East 3.8 mph 8.3 mph 44% 0 in 464 W/m2
16:59 80.2 °F 56.5 °F 30 in East 2.2 mph 8.3 mph 44% 0 in 454 W/m2
17:04 81.7 °F 56.5 °F 30 in SE 3.8 mph 6.9 mph 42% 0 in 445 W/m2
17:09 80.2 °F 55.8 °F 30 in SE 3.8 mph 9.2 mph 43% 0 in 433 W/m2
17:14 80.1 °F 56.1 °F 30 in SE 3.1 mph 9.2 mph 44% 0 in 375 W/m2
17:19 80.1 °F 56.1 °F 30 in SE 3.1 mph 6.9 mph 44% 0 in 388 W/m2
17:24 80.2 °F 56.5 °F 30 in SE 2.2 mph 6.9 mph 44% 0 in 367 W/m2
17:29 79.5 °F 57 °F 30 in SE 3.8 mph 9.2 mph 46% 0 in 344 W/m2
17:39 78.8 °F 57.6 °F 30 in SE 3.1 mph 10.7 mph 48% 0 in 328 W/m2
17:44 79.2 °F 57.2 °F 30 in SE 2.2 mph 8.3 mph 47% 0 in 331 W/m2
17:49 79.5 °F 57.6 °F 30 in SSE 3.8 mph 8.3 mph 47% 0 in 335 W/m2
17:54 79.7 °F 57.7 °F 30 in ESE 3.8 mph 9.2 mph 47% 0 in 325 W/m2
17:59 79.7 °F 58.3 °F 30 in ESE 3.1 mph 9.2 mph 48% 0 in 310 W/m2
18:04 79.9 °F 59.2 °F 30 in SE 2.2 mph 7.6 mph 49% 0 in 304 W/m2
18:09 80.2 °F 58.8 °F 30 in SE 3.8 mph 6.9 mph 48% 0 in 280 W/m2
18:14 79.3 °F 57.9 °F 30 in SE 3.1 mph 7.6 mph 48% 0 in 256 W/m2
18:19 79.3 °F 58.6 °F 30 in SE 2.2 mph 7.6 mph 49% 0 in 236 W/m2
18:24 79.2 °F 57.7 °F 30 in SE 2.2 mph 7.6 mph 48% 0 in 205 W/m2
18:29 77.5 °F 57.9 °F 30 in SE 3.1 mph 9.2 mph 51% 0 in 116 W/m2
18:34 75.2 °F 57.4 °F 30 in ESE 5.4 mph 9.2 mph 54% 0 in 108 W/m2
18:39 73.9 °F 57.4 °F 30 in SSE 3.1 mph 9.2 mph 56% 0 in 108 W/m2
18:44 73.2 °F 57.6 °F 30 in South 0.7 mph 8.3 mph 58% 0 in 94 W/m2
18:49 72.7 °F 57 °F 30 in SE 2.2 mph 7.6 mph 58% 0 in 90 W/m2
18:54 72.3 °F 57.2 °F 30 in Calm   6 mph 59% 0 in 95 W/m2
18:59 72.3 °F 57.2 °F 30 in SE 1.6 mph 6 mph 59% 0 in 80 W/m2
19:04 72.1 °F 57.6 °F 30 in SE 0.7 mph 6.9 mph 60% 0 in 66 W/m2
19:09 72 °F 57.4 °F 30 in ESE 3.1 mph 6.9 mph 60% 0 in 60 W/m2
19:14 71.4 °F 57.4 °F 30 in ESE 3.8 mph 6.9 mph 61% 0 in 59 W/m2
19:19 71.2 °F 57 °F 30 in SE 0.7 mph 7.6 mph 61% 0 in 61 W/m2
19:24 71.2 °F 56.7 °F 30 in SE 5.4 mph 7.6 mph 60% 0 in 52 W/m2
19:29 71.2 °F 56.1 °F 30 in Calm   6.9 mph 59% 0 in 46 W/m2
19:34 71.2 °F 56.1 °F 30 in SE 3.1 mph 8.3 mph 59% 0 in 40 W/m2
19:39 71.2 °F 56.7 °F 30 in SE 2.2 mph 8.3 mph 60% 0 in 30 W/m2
19:44 71.1 °F 57 °F 30 in Calm   6.9 mph 61% 0 in 23 W/m2
19:49 70.9 °F 57.2 °F 30 in Calm   4.5 mph 62% 0 in 16 W/m2
19:54 70.5 °F 57.4 °F 30 in Calm   4.5 mph 63% 0 in 11 W/m2
19:59 70.3 °F 57.6 °F 30 in Calm   2.2 mph 64% 0 in 6 W/m2
20:04 69.8 °F 57 °F 30 in Calm   0.7 mph 64% 0 in 3 W/m2
20:09 69.3 °F 57.4 °F 30 in Calm     66% 0 in 0 W/m2
20:14 68.7 °F 57.4 °F 30 in Calm     67% 0 in 0 W/m2
20:19 68.4 °F 57.4 °F 30 in Calm     68% 0 in 0 W/m2
20:24 68 °F 57.9 °F 30 in Calm     70% 0 in 0 W/m2
20:29 67.8 °F 58.5 °F 30 in Calm     72% 0 in 0 W/m2
20:34 67.6 °F 59.2 °F 30 in Calm   0.7 mph 74% 0 in 0 W/m2
20:38 67.5 °F 58.8 °F 30 in Calm   0.7 mph 74% 0 in 0 W/m2
20:43 67.1 °F 58.8 °F 30 in Calm   0.7 mph 75% 0 in 0 W/m2
20:48 67.1 °F 58.8 °F 30 in Calm     75% 0 in 0 W/m2
20:53 67.1 °F 59.4 °F 30 in Calm     76% 0 in 0 W/m2
20:58 66.9 °F 59.5 °F 30 in Calm     77% 0 in 0 W/m2
21:03 66.9 °F 59.5 °F 30 in Calm     77% 0 in 0 W/m2
21:08 66.9 °F 59.5 °F 30 in Calm     77% 0 in 0 W/m2
21:13 67.3 °F 59.7 °F 30.1 in Calm   0.7 mph 77% 0 in 0 W/m2
21:18 67.5 °F 60.4 °F 30 in Calm   0.7 mph 78% 0 in 0 W/m2
21:23 67.6 °F 60.6 °F 30.1 in Calm   0.7 mph 78% 0 in 0 W/m2
21:28 67.8 °F 60.6 °F 30.1 in ENE 0.7 mph 3.1 mph 78% 0 in 0 W/m2
21:33 67.8 °F 60.6 °F 30.1 in Calm   3.1 mph 78% 0 in 0 W/m2
21:38 67.8 °F 60.6 °F 30.1 in Calm   3.1 mph 78% 0 in 0 W/m2
21:43 67.8 °F 60.6 °F 30.1 in Calm   1.6 mph 78% 0 in 0 W/m2
21:48 67.8 °F 60.6 °F 30.1 in Calm   1.6 mph 78% 0 in 0 W/m2
21:53 67.8 °F 60.6 °F 30.1 in Calm   0.7 mph 78% 0 in 0 W/m2
21:58 67.6 °F 60.6 °F 30.1 in NW 1.6 mph 3.1 mph 78% 0 in 0 W/m2
22:03 67.5 °F 60.4 °F 30.1 in Calm   3.1 mph 78% 0 in 0 W/m2
22:08 67.3 °F 60.3 °F 30.1 in NW 0.7 mph 3.1 mph 78% 0 in 0 W/m2
22:13 66.9 °F 59.9 °F 30.1 in NW 2.2 mph 3.8 mph 78% 0 in 0 W/m2
22:18 66.7 °F 59.7 °F 30.1 in NW 1.6 mph 3.8 mph 78% 0 in 0 W/m2
22:23 66.6 °F 59.5 °F 30.1 in NW 0.7 mph 3.1 mph 78% 0 in 0 W/m2
22:28 66.4 °F 59.7 °F 30.1 in Calm   2.2 mph 79% 0 in 0 W/m2
22:33 66 °F 59.7 °F 30.1 in Calm   2.2 mph 80% 0 in 0 W/m2
22:38 65.7 °F 59.7 °F 30.1 in Calm   0.7 mph 81% 0 in 0 W/m2
22:43 65.5 °F 59.5 °F 30.1 in Calm     81% 0 in 0 W/m2
22:48 65.3 °F 59.4 °F 30.1 in Calm   0.7 mph 81% 0 in 0 W/m2
22:53 65.1 °F 59.5 °F 30.1 in Calm   0.7 mph 82% 0 in 0 W/m2
22:58 64.9 °F 59.4 °F 30.1 in Calm     82% 0 in 0 W/m2
23:03 64.9 °F 59.4 °F 30.1 in Calm     82% 0 in 0 W/m2
23:08 65.1 °F 59.5 °F 30.1 in Calm     82% 0 in 0 W/m2
23:13 64.9 °F 59.4 °F 30.1 in Calm     82% 0 in 0 W/m2
23:18 65.1 °F 59.7 °F 30.1 in Calm   1.6 mph 83% 0 in 0 W/m2
23:23 65.1 °F 59.7 °F 30.1 in Calm   1.6 mph 83% 0 in 0 W/m2
23:28 64.9 °F 59.7 °F 30.1 in ENE 0.7 mph 1.6 mph 83% 0 in 0 W/m2
23:33 64.8 °F 58.8 °F 30.1 in NE 2.2 mph 3.8 mph 81% 0 in 0 W/m2
23:38 64.9 °F 57.9 °F 30.1 in NNE 0.7 mph 3.8 mph 78% 0 in 0 W/m2
23:43 64.8 °F 57.7 °F 30.1 in Calm   3.8 mph 78% 0 in 0 W/m2
23:48 64.6 °F 57.6 °F 30.1 in Calm   2.2 mph 78% 0 in 0 W/m2
23:53 64.4 °F 57.7 °F 30.1 in Calm     79% 0 in 0 W/m2
23:58 64 °F 57.7 °F 30.1 in Calm     80% 0 in 0 W/m2
Northern Hawkes Bay. New Zealand Historic Data
Compliments of Weather Underground - 2.25 mb